createdAt,value
2023-04-22T00:00:15.915Z,34.70
2023-04-22T00:00:38.703Z,89.70
2023-04-22T00:01:02.342Z,95.00
2023-04-22T00:01:25.150Z,99.90
2023-04-22T00:01:48.096Z,99.90
2023-04-22T00:02:14.782Z,99.90
2023-04-22T00:02:37.822Z,99.90
2023-04-22T00:03:02.110Z,99.90
2023-04-22T00:03:25.264Z,99.90
2023-04-22T00:03:48.352Z,99.90
2023-04-22T00:04:11.599Z,99.90
2023-04-22T00:04:35.054Z,99.90
2023-04-22T00:04:58.101Z,1.00
2023-04-22T00:05:21.488Z,1.00
2023-04-22T00:05:45.263Z,1.00
2023-04-22T00:06:08.512Z,1.00
2023-04-22T00:06:32.748Z,1.00
2023-04-22T00:06:55.550Z,4.50
2023-04-22T00:07:18.284Z,13.60
2023-04-22T00:07:41.072Z,58.70
2023-04-22T00:08:04.413Z,99.90
2023-04-22T00:08:27.260Z,99.90
2023-04-22T00:08:50.072Z,99.90
2023-04-22T00:09:13.172Z,99.90
2023-04-22T00:09:36.345Z,99.90
2023-04-22T00:09:59.345Z,1.00
2023-04-22T00:10:22.119Z,1.00
2023-04-22T00:10:44.924Z,99.90
2023-04-22T00:11:07.807Z,99.90
2023-04-22T00:11:30.747Z,99.90
2023-04-22T00:11:53.568Z,99.90
2023-04-22T00:12:16.296Z,99.90
2023-04-22T00:12:39.095Z,99.90
2023-04-22T00:13:01.905Z,99.90
2023-04-22T00:13:24.659Z,1.00
2023-04-22T00:13:47.420Z,1.00
2023-04-22T00:14:10.264Z,1.00
2023-04-22T00:14:33.032Z,1.00
2023-04-22T00:14:55.847Z,99.90
2023-04-22T00:15:21.816Z,99.90
2023-04-22T00:15:44.573Z,1.00
2023-04-22T00:16:07.766Z,1.00
2023-04-22T00:16:30.700Z,1.00
2023-04-22T00:16:53.447Z,1.00
2023-04-22T00:17:16.158Z,1.00
2023-04-22T00:17:39.088Z,1.00
2023-04-22T00:18:01.917Z,1.00
2023-04-22T00:18:24.766Z,1.00
2023-04-22T00:18:47.894Z,1.00
2023-04-22T00:19:10.628Z,1.00
2023-04-22T00:19:33.612Z,1.00
2023-04-22T00:19:56.391Z,1.00
2023-04-22T00:20:21.655Z,1.00
2023-04-22T00:20:44.453Z,1.00
2023-04-22T00:21:08.093Z,10.30
2023-04-22T00:21:32.984Z,36.20
2023-04-22T00:21:56.340Z,83.30
2023-04-22T00:22:19.109Z,97.80
2023-04-22T00:22:41.842Z,99.90
2023-04-22T00:23:04.596Z,99.90
2023-04-22T00:23:27.372Z,99.90
2023-04-22T00:23:50.251Z,99.90
2023-04-22T00:24:13.040Z,99.90
2023-04-22T00:24:35.813Z,99.90
2023-04-22T00:24:58.640Z,99.90
2023-04-22T00:25:21.472Z,99.90
2023-04-22T00:25:44.265Z,99.90
2023-04-22T00:26:07.052Z,99.90
2023-04-22T00:26:29.966Z,99.90
2023-04-22T00:26:52.704Z,99.90
2023-04-22T00:27:15.456Z,99.90
2023-04-22T00:27:38.300Z,99.90
2023-04-22T00:28:01.127Z,99.90
2023-04-22T00:28:23.961Z,99.90
2023-04-22T00:28:46.825Z,99.90
2023-04-22T00:29:09.656Z,99.90
2023-04-22T00:29:32.594Z,99.90
2023-04-22T00:29:55.265Z,99.90
2023-04-22T00:30:18.069Z,99.90
2023-04-22T00:30:40.903Z,99.90
2023-04-22T00:31:04.957Z,99.90
2023-04-22T00:31:27.971Z,99.90
2023-04-22T00:31:50.912Z,99.90
2023-04-22T00:32:13.950Z,99.90
2023-04-22T00:32:36.756Z,99.90
2023-04-22T00:32:59.646Z,99.90
2023-04-22T00:33:22.450Z,99.90
2023-04-22T00:33:45.207Z,99.90
2023-04-22T00:34:08.107Z,99.90
2023-04-22T00:34:30.886Z,99.90
2023-04-22T00:34:53.588Z,1.00
2023-04-22T00:35:16.524Z,1.00
2023-04-22T00:35:39.387Z,1.00
2023-04-22T00:36:02.100Z,1.00
2023-04-22T00:36:24.872Z,1.00
2023-04-22T00:36:49.001Z,1.00
2023-04-22T00:37:11.774Z,1.00
2023-04-22T00:37:35.242Z,1.00
2023-04-22T00:37:58.086Z,10.90
2023-04-22T00:38:21.313Z,53.70
2023-04-22T00:38:46.513Z,99.90
2023-04-22T00:39:09.649Z,99.90
2023-04-22T00:39:32.419Z,99.90
2023-04-22T00:39:55.138Z,99.90
2023-04-22T00:40:18.063Z,99.90
2023-04-22T00:40:41.983Z,99.90
2023-04-22T00:41:04.848Z,99.90
2023-04-22T00:41:28.151Z,99.90
2023-04-22T00:41:50.987Z,99.90
2023-04-22T00:42:13.840Z,99.90
2023-04-22T00:42:37.435Z,99.90
2023-04-22T00:43:00.654Z,99.90
2023-04-22T00:43:23.395Z,99.90
2023-04-22T00:43:46.219Z,99.90
2023-04-22T00:44:10.145Z,99.90
2023-04-22T00:44:33.106Z,99.90
2023-04-22T00:44:55.898Z,99.90
2023-04-22T00:45:19.406Z,99.90
2023-04-22T00:45:42.202Z,99.90
2023-04-22T00:46:04.978Z,99.90
2023-04-22T00:46:27.813Z,99.90
2023-04-22T00:46:50.632Z,99.90
2023-04-22T00:47:13.536Z,99.90
2023-04-22T00:47:37.203Z,99.90
2023-04-22T00:48:00.326Z,99.90
2023-04-22T00:48:23.338Z,99.90
2023-04-22T00:48:46.169Z,99.90
2023-04-22T00:49:08.942Z,99.90
2023-04-22T00:49:31.781Z,99.90
2023-04-22T00:49:55.391Z,99.90
2023-04-22T00:50:18.304Z,99.90
2023-04-22T00:50:41.110Z,99.90
2023-04-22T00:51:04.191Z,99.90
2023-04-22T00:51:28.210Z,99.90
2023-04-22T00:51:52.412Z,99.90
2023-04-22T00:52:15.206Z,99.90
2023-04-22T00:52:38.021Z,99.90
2023-04-22T00:53:00.879Z,99.90
2023-04-22T00:53:23.712Z,99.90
2023-04-22T00:53:46.516Z,99.90
2023-04-22T00:54:09.341Z,99.90
2023-04-22T00:54:32.178Z,99.90
2023-04-22T00:54:55.027Z,99.90
2023-04-22T00:55:17.996Z,1.00
2023-04-22T00:55:40.924Z,1.00
2023-04-22T00:56:03.925Z,1.00
2023-04-22T00:56:27.605Z,1.00
2023-04-22T00:56:50.424Z,1.00
2023-04-22T00:57:13.207Z,1.00
2023-04-22T00:57:36.148Z,1.00
2023-04-22T00:57:59.009Z,1.00
2023-04-22T00:58:21.951Z,1.00
2023-04-22T00:58:44.701Z,1.00
2023-04-22T00:59:07.966Z,1.00
2023-04-22T00:59:30.730Z,1.00
2023-04-22T00:59:53.577Z,1.00
2023-04-22T01:00:16.753Z,1.00
2023-04-22T01:00:39.660Z,1.00
2023-04-22T01:01:02.535Z,10.80
2023-04-22T01:01:25.760Z,15.50
2023-04-22T01:01:48.790Z,1.00
2023-04-22T01:02:12.096Z,1.00
2023-04-22T01:02:35.051Z,1.00
2023-04-22T01:02:58.567Z,1.00
2023-04-22T01:03:22.366Z,1.00
2023-04-22T01:03:45.620Z,1.00
2023-04-22T01:04:10.952Z,1.00
2023-04-22T01:04:33.920Z,1.00
2023-04-22T01:04:56.775Z,43.80
2023-04-22T01:05:20.236Z,99.90
2023-04-22T01:05:43.023Z,99.90
2023-04-22T01:06:06.112Z,99.90
2023-04-22T01:06:29.140Z,99.90
2023-04-22T01:06:53.950Z,99.90
2023-04-22T01:07:16.669Z,99.90
2023-04-22T01:07:39.460Z,99.90
2023-04-22T01:08:02.539Z,99.90
2023-04-22T01:08:28.586Z,99.90
2023-04-22T01:08:51.401Z,99.90
2023-04-22T01:09:14.140Z,99.90
2023-04-22T01:09:36.848Z,99.90
2023-04-22T01:09:59.592Z,99.90
2023-04-22T01:10:22.418Z,99.90
2023-04-22T01:10:45.329Z,99.90
2023-04-22T01:11:08.069Z,99.90
2023-04-22T01:11:30.787Z,99.90
2023-04-22T01:11:53.521Z,99.90
2023-04-22T01:12:16.180Z,99.90
2023-04-22T01:12:38.916Z,99.90
2023-04-22T01:13:01.627Z,99.90
2023-04-22T01:13:24.536Z,99.90
2023-04-22T01:13:47.320Z,99.90
2023-04-22T01:14:10.091Z,99.90
2023-04-22T01:14:32.828Z,99.90
2023-04-22T01:14:55.989Z,99.90
2023-04-22T01:15:19.247Z,99.90
2023-04-22T01:15:42.040Z,99.80
2023-04-22T01:16:06.403Z,99.90
2023-04-22T01:16:29.764Z,95.90
2023-04-22T01:16:54.332Z,99.90
2023-04-22T01:17:19.451Z,99.90
2023-04-22T01:17:42.379Z,99.90
2023-04-22T01:18:05.445Z,99.90
2023-04-22T01:18:28.618Z,99.90
2023-04-22T01:18:53.307Z,99.90
2023-04-22T01:19:16.059Z,99.90
2023-04-22T01:19:39.054Z,99.90
2023-04-22T01:20:04.522Z,99.90
2023-04-22T01:20:29.727Z,99.90
2023-04-22T01:20:53.327Z,99.90
2023-04-22T01:21:17.366Z,99.90
2023-04-22T01:21:41.015Z,99.90
2023-04-22T01:22:05.261Z,99.90
2023-04-22T01:22:28.030Z,99.90
2023-04-22T01:22:50.963Z,99.90
2023-04-22T01:23:17.812Z,99.90
2023-04-22T01:23:40.672Z,99.90
2023-04-22T01:24:03.378Z,99.90
2023-04-22T01:24:26.781Z,99.90
2023-04-22T01:24:49.731Z,99.90
2023-04-22T01:25:12.548Z,99.90
2023-04-22T01:25:35.306Z,99.90
2023-04-22T01:25:58.084Z,99.90
2023-04-22T01:26:20.950Z,99.90
2023-04-22T01:26:43.705Z,99.90
2023-04-22T01:27:06.474Z,99.90
2023-04-22T01:27:29.294Z,99.90
2023-04-22T01:27:52.192Z,99.90
2023-04-22T01:28:15.140Z,99.90
2023-04-22T01:28:38.020Z,99.90
2023-04-22T01:29:02.838Z,99.90
2023-04-22T01:29:25.715Z,99.90
2023-04-22T01:29:48.416Z,99.90
2023-04-22T01:30:12.116Z,99.90
2023-04-22T01:30:34.869Z,99.90
2023-04-22T01:30:57.571Z,99.90
2023-04-22T01:31:20.327Z,99.90
2023-04-22T01:31:43.170Z,99.90
2023-04-22T01:32:06.205Z,99.90
2023-04-22T01:32:31.119Z,99.90
2023-04-22T01:32:54.096Z,99.90
2023-04-22T01:33:17.100Z,99.90
2023-04-22T01:33:40.115Z,99.90
2023-04-22T01:34:02.982Z,99.90
2023-04-22T01:34:25.828Z,99.90
2023-04-22T01:34:48.666Z,99.90
2023-04-22T01:35:11.565Z,99.90
2023-04-22T01:35:37.324Z,99.90
2023-04-22T01:36:00.845Z,99.90
2023-04-22T01:36:23.695Z,99.90
2023-04-22T01:36:46.567Z,99.90
2023-04-22T01:37:09.456Z,99.90
2023-04-22T01:37:32.340Z,99.90
2023-04-22T01:37:55.077Z,99.90
2023-04-22T01:38:19.288Z,99.90
2023-04-22T01:38:42.131Z,99.90
2023-04-22T01:39:05.120Z,99.90
2023-04-22T01:39:28.008Z,99.90
2023-04-22T01:39:50.838Z,99.90
2023-04-22T01:40:13.830Z,99.90
2023-04-22T01:40:36.711Z,99.90
2023-04-22T01:40:59.536Z,99.90
2023-04-22T01:41:22.575Z,99.90
2023-04-22T01:41:45.475Z,99.90
2023-04-22T01:42:08.208Z,99.90
2023-04-22T01:42:31.239Z,99.90
2023-04-22T01:42:54.096Z,99.90
2023-04-22T01:43:16.919Z,99.90
2023-04-22T01:43:40.680Z,99.90
2023-04-22T01:44:04.039Z,99.90
2023-04-22T01:44:27.120Z,99.90
2023-04-22T01:44:49.960Z,99.90
2023-04-22T01:45:13.504Z,99.90
2023-04-22T01:45:36.294Z,99.90
2023-04-22T01:46:00.556Z,99.90
2023-04-22T01:46:23.518Z,99.90
2023-04-22T01:46:46.345Z,99.90
2023-04-22T01:47:09.083Z,99.90
2023-04-22T01:47:31.915Z,99.90
2023-04-22T01:47:54.879Z,1.00
2023-04-22T01:48:18.982Z,1.00
2023-04-22T01:48:41.960Z,1.00
2023-04-22T01:49:04.850Z,1.00
2023-04-22T01:49:27.615Z,1.00
2023-04-22T01:49:50.354Z,1.00
2023-04-22T01:50:13.064Z,1.00
2023-04-22T01:50:35.785Z,1.00
2023-04-22T01:50:58.618Z,1.00
2023-04-22T01:51:21.396Z,1.00
2023-04-22T01:51:44.099Z,1.00
2023-04-22T01:52:06.831Z,1.00
2023-04-22T01:52:29.681Z,1.00
2023-04-22T01:52:52.407Z,1.00
2023-04-22T01:53:15.251Z,1.00
2023-04-22T01:53:39.618Z,1.00
2023-04-22T01:54:04.177Z,1.00
2023-04-22T01:54:27.093Z,1.00
2023-04-22T01:54:49.828Z,1.00
2023-04-22T01:55:12.803Z,1.00
2023-04-22T01:55:38.311Z,1.00
2023-04-22T01:56:01.158Z,1.00
2023-04-22T01:56:23.973Z,1.00
2023-04-22T01:56:50.906Z,1.00
2023-04-22T01:57:14.483Z,1.00
2023-04-22T01:57:37.400Z,1.00
2023-04-22T01:58:00.259Z,1.00
2023-04-22T01:58:23.121Z,1.00
2023-04-22T01:58:45.962Z,1.00
2023-04-22T01:59:09.248Z,1.00
2023-04-22T01:59:32.087Z,1.00
2023-04-22T01:59:54.905Z,1.00
2023-04-22T02:00:18.183Z,1.00
2023-04-22T02:00:40.918Z,99.90
2023-04-22T02:01:03.776Z,99.90
2023-04-22T02:01:26.725Z,1.00
2023-04-22T02:01:49.647Z,1.00
2023-04-22T02:02:12.839Z,1.00
2023-04-22T02:02:35.813Z,99.90
2023-04-22T02:02:58.803Z,99.90
2023-04-22T02:03:21.835Z,99.90
2023-04-22T02:03:45.005Z,99.90
2023-04-22T02:04:08.092Z,99.90
2023-04-22T02:04:30.948Z,99.90
2023-04-22T02:04:53.904Z,99.90
2023-04-22T02:05:17.880Z,99.90
2023-04-22T02:05:40.585Z,99.90
2023-04-22T02:06:03.472Z,99.90
2023-04-22T02:06:27.617Z,99.90
2023-04-22T02:06:50.446Z,99.90
2023-04-22T02:07:13.212Z,99.90
2023-04-22T02:07:36.577Z,99.90
2023-04-22T02:07:59.381Z,99.90
2023-04-22T02:08:22.083Z,99.90
2023-04-22T02:08:46.602Z,99.90
2023-04-22T02:09:09.335Z,99.90
2023-04-22T02:09:33.325Z,99.90
2023-04-22T02:09:56.171Z,99.90
2023-04-22T02:10:19.002Z,99.90
2023-04-22T02:10:41.813Z,99.90
2023-04-22T02:11:04.846Z,99.90
2023-04-22T02:11:27.574Z,99.90
2023-04-22T02:11:50.499Z,99.90
2023-04-22T02:12:15.622Z,99.90
2023-04-22T02:12:38.357Z,99.90
2023-04-22T02:13:03.235Z,99.90
2023-04-22T02:13:26.012Z,99.90
2023-04-22T02:13:51.527Z,99.90
2023-04-22T02:14:14.292Z,99.90
2023-04-22T02:14:37.022Z,99.90
2023-04-22T02:14:59.716Z,99.90
2023-04-22T02:15:23.107Z,99.90
2023-04-22T02:15:46.128Z,99.90
2023-04-22T02:16:09.533Z,99.90
2023-04-22T02:16:35.452Z,99.90
2023-04-22T02:16:58.306Z,99.90
2023-04-22T02:17:22.452Z,99.90
2023-04-22T02:17:45.227Z,99.90
2023-04-22T02:18:08.502Z,99.90
2023-04-22T02:18:31.206Z,99.90
2023-04-22T02:18:53.977Z,99.90
2023-04-22T02:19:16.702Z,99.90
2023-04-22T02:19:39.545Z,99.90
2023-04-22T02:20:02.951Z,99.90
2023-04-22T02:20:25.784Z,99.90
2023-04-22T02:20:48.899Z,99.90
2023-04-22T02:21:11.661Z,99.90
2023-04-22T02:21:34.388Z,99.90
2023-04-22T02:21:57.293Z,99.90
2023-04-22T02:22:20.081Z,99.90
2023-04-22T02:22:43.052Z,99.90
2023-04-22T02:23:05.891Z,99.90
2023-04-22T02:23:28.783Z,1.00
2023-04-22T02:23:53.040Z,1.00
2023-04-22T02:24:15.886Z,1.00
2023-04-22T02:24:38.683Z,1.00
2023-04-22T02:25:01.983Z,1.00
2023-04-22T02:25:24.799Z,1.00
2023-04-22T02:25:50.627Z,1.00
2023-04-22T02:26:13.360Z,1.00
2023-04-22T02:26:36.151Z,1.00
2023-04-22T02:26:58.971Z,1.00
2023-04-22T02:27:22.112Z,1.00
2023-04-22T02:27:44.950Z,1.00
2023-04-22T02:28:07.790Z,1.00
2023-04-22T02:28:30.565Z,1.00
2023-04-22T02:28:53.324Z,1.00
2023-04-22T02:29:16.436Z,1.00
2023-04-22T02:29:39.340Z,1.00
2023-04-22T02:30:02.623Z,1.00
2023-04-22T02:30:25.588Z,1.00
2023-04-22T02:30:48.432Z,1.00
2023-04-22T02:31:11.261Z,1.00
2023-04-22T02:31:34.164Z,1.00
2023-04-22T02:31:57.678Z,1.00
2023-04-22T02:32:20.774Z,1.00
2023-04-22T02:32:43.635Z,1.00
2023-04-22T02:33:06.467Z,1.00
2023-04-22T02:33:29.381Z,1.00
2023-04-22T02:33:52.196Z,1.00
2023-04-22T02:34:17.199Z,1.00
2023-04-22T02:34:39.918Z,1.00
2023-04-22T02:35:03.253Z,1.00
2023-04-22T02:35:26.098Z,1.00
2023-04-22T02:35:48.942Z,1.00
2023-04-22T02:36:11.715Z,1.00
2023-04-22T02:36:35.137Z,1.00
2023-04-22T02:37:01.095Z,1.00
2023-04-22T02:37:24.010Z,1.00
2023-04-22T02:37:46.905Z,1.00
2023-04-22T02:38:10.316Z,1.00
2023-04-22T02:38:33.139Z,1.00
2023-04-22T02:38:57.296Z,1.00
2023-04-22T02:39:22.760Z,1.00
2023-04-22T02:39:45.578Z,1.00
2023-04-22T02:40:09.461Z,1.00
2023-04-22T02:40:32.235Z,1.00
2023-04-22T02:40:55.052Z,1.00
2023-04-22T02:41:20.272Z,1.00
2023-04-22T02:41:43.104Z,1.00
2023-04-22T02:42:06.080Z,1.00
2023-04-22T02:42:28.826Z,1.00
2023-04-22T02:42:51.962Z,1.00
2023-04-22T02:43:14.707Z,1.00
2023-04-22T02:43:37.663Z,1.00
2023-04-22T02:44:00.538Z,1.00
2023-04-22T02:44:23.312Z,1.00
2023-04-22T02:44:46.090Z,1.00
2023-04-22T02:45:10.202Z,1.00
2023-04-22T02:45:33.051Z,1.00
2023-04-22T02:45:56.390Z,1.00
2023-04-22T02:46:19.173Z,1.00
2023-04-22T02:46:42.108Z,1.00
2023-04-22T02:47:06.376Z,1.00
2023-04-22T02:47:29.409Z,1.00
2023-04-22T02:47:52.322Z,1.00
2023-04-22T02:48:17.386Z,1.00
2023-04-22T02:48:40.241Z,1.00
2023-04-22T02:49:03.086Z,1.00
2023-04-22T02:49:25.935Z,1.00
2023-04-22T02:49:48.742Z,1.00
2023-04-22T02:50:11.709Z,1.00
2023-04-22T02:50:34.503Z,1.00
2023-04-22T02:50:57.265Z,1.00
2023-04-22T02:51:20.540Z,1.00
2023-04-22T02:51:43.379Z,1.00
2023-04-22T02:52:06.280Z,1.00
2023-04-22T02:52:29.096Z,1.00
2023-04-22T02:52:52.401Z,1.00
2023-04-22T02:53:15.387Z,1.00
2023-04-22T02:53:38.179Z,1.00
2023-04-22T02:54:02.599Z,1.00
2023-04-22T02:54:25.480Z,1.00
2023-04-22T02:54:48.258Z,1.00
2023-04-22T02:55:11.208Z,1.00
2023-04-22T02:55:33.971Z,1.00
2023-04-22T02:55:59.134Z,1.00
2023-04-22T02:56:22.118Z,1.00
2023-04-22T02:56:44.954Z,1.00
2023-04-22T02:57:08.035Z,1.00
2023-04-22T02:57:31.075Z,1.00
2023-04-22T02:57:53.817Z,1.00
2023-04-22T02:58:16.977Z,1.00
2023-04-22T02:58:39.887Z,1.00
2023-04-22T02:59:02.630Z,1.00
2023-04-22T02:59:25.467Z,1.00
2023-04-22T02:59:48.341Z,1.00
2023-04-22T03:00:11.694Z,1.00
2023-04-22T03:00:34.577Z,1.00
2023-04-22T03:00:58.170Z,1.00
2023-04-22T03:01:21.177Z,1.00
2023-04-22T03:01:43.936Z,1.00
2023-04-22T03:02:07.139Z,1.00
2023-04-22T03:02:30.258Z,1.00
2023-04-22T03:02:53.912Z,1.00
2023-04-22T03:03:17.087Z,1.00
2023-04-22T03:03:40.356Z,1.00
2023-04-22T03:04:03.672Z,1.00
2023-04-22T03:04:27.079Z,1.00
2023-04-22T03:04:52.316Z,1.00
2023-04-22T03:05:15.152Z,1.00
2023-04-22T03:05:37.916Z,1.00
2023-04-22T03:06:00.822Z,1.00
2023-04-22T03:06:23.622Z,1.00
2023-04-22T03:06:46.557Z,1.00
2023-04-22T03:07:09.407Z,1.00
2023-04-22T03:07:32.201Z,1.00
2023-04-22T03:07:55.053Z,1.00
2023-04-22T03:08:17.946Z,1.00
2023-04-22T03:08:40.796Z,1.00
2023-04-22T03:09:08.679Z,1.00
2023-04-22T03:09:31.545Z,1.00
2023-04-22T03:09:56.053Z,1.00
2023-04-22T03:10:19.210Z,1.00
2023-04-22T03:10:42.187Z,1.00
2023-04-22T03:11:05.743Z,1.00
2023-04-22T03:11:28.509Z,1.00
2023-04-22T03:11:51.258Z,1.00
2023-04-22T03:12:13.981Z,1.00
2023-04-22T03:12:36.741Z,1.00
2023-04-22T03:12:59.605Z,1.00
2023-04-22T03:13:22.427Z,1.00
2023-04-22T03:13:45.380Z,1.00
2023-04-22T03:14:08.281Z,1.00
2023-04-22T03:14:33.455Z,1.00
2023-04-22T03:14:56.175Z,1.00
2023-04-22T03:15:21.798Z,1.00
2023-04-22T03:15:45.024Z,1.00
2023-04-22T03:16:07.890Z,1.00
2023-04-22T03:16:30.838Z,1.00
2023-04-22T03:16:53.818Z,1.00
2023-04-22T03:17:16.987Z,1.00
2023-04-22T03:17:39.791Z,1.00
2023-04-22T03:18:05.053Z,1.00
2023-04-22T03:18:28.012Z,1.00
2023-04-22T03:18:51.046Z,1.00
2023-04-22T03:19:13.787Z,1.00
2023-04-22T03:19:36.893Z,1.00
2023-04-22T03:20:00.043Z,1.00
2023-04-22T03:20:22.949Z,1.00
2023-04-22T03:20:45.753Z,1.00
2023-04-22T03:21:08.756Z,1.00
2023-04-22T03:21:32.472Z,1.00
2023-04-22T03:21:56.700Z,1.00
2023-04-22T03:22:19.597Z,1.00
2023-04-22T03:22:42.420Z,1.00
2023-04-22T03:23:07.119Z,1.00
2023-04-22T03:23:29.923Z,1.00
2023-04-22T03:23:52.737Z,1.00
2023-04-22T03:24:17.032Z,1.00
2023-04-22T03:24:39.962Z,1.00
2023-04-22T03:25:06.032Z,1.00
2023-04-22T03:25:28.872Z,1.00
2023-04-22T03:25:52.221Z,1.00
2023-04-22T03:26:15.068Z,1.00
2023-04-22T03:26:40.527Z,1.00
2023-04-22T03:27:04.261Z,1.00
2023-04-22T03:27:27.211Z,1.00
2023-04-22T03:27:50.047Z,1.00
2023-04-22T03:28:15.240Z,1.00
2023-04-22T03:28:38.153Z,1.00
2023-04-22T03:29:01.005Z,1.00
2023-04-22T03:29:26.330Z,1.00
2023-04-22T03:29:49.177Z,1.00
2023-04-22T03:30:12.377Z,1.00
2023-04-22T03:30:35.164Z,1.00
2023-04-22T03:30:58.044Z,1.00
2023-04-22T03:31:23.500Z,1.00
2023-04-22T03:31:46.338Z,1.00
2023-04-22T03:32:12.352Z,1.00
2023-04-22T03:32:35.126Z,1.00
2023-04-22T03:32:58.470Z,1.00
2023-04-22T03:33:21.415Z,1.00
2023-04-22T03:33:44.262Z,1.00
2023-04-22T03:34:06.979Z,1.00
2023-04-22T03:34:29.754Z,1.00
2023-04-22T03:34:55.406Z,1.00
2023-04-22T03:35:18.449Z,1.00
2023-04-22T03:35:43.703Z,1.00
2023-04-22T03:36:07.238Z,1.00
2023-04-22T03:36:30.054Z,1.00
2023-04-22T03:36:52.986Z,1.00
2023-04-22T03:37:16.334Z,1.00
2023-04-22T03:37:39.317Z,1.00
2023-04-22T03:38:02.090Z,1.00
2023-04-22T03:38:27.326Z,1.00
2023-04-22T03:38:50.368Z,1.00
2023-04-22T03:39:13.464Z,1.00
2023-04-22T03:39:37.934Z,1.00
2023-04-22T03:40:01.288Z,1.00
2023-04-22T03:40:26.312Z,1.00
2023-04-22T03:40:51.009Z,1.00
2023-04-22T03:41:14.498Z,1.00
2023-04-22T03:41:37.251Z,1.00
2023-04-22T03:42:02.825Z,1.00
2023-04-22T03:42:25.886Z,1.00
2023-04-22T03:42:48.808Z,1.00
2023-04-22T03:43:11.964Z,1.00
2023-04-22T03:43:34.750Z,1.00
2023-04-22T03:44:00.340Z,1.00
2023-04-22T03:44:24.396Z,1.00
2023-04-22T03:44:49.551Z,1.00
2023-04-22T03:45:12.496Z,1.00
2023-04-22T03:45:35.575Z,1.00
2023-04-22T03:45:59.490Z,1.00
2023-04-22T03:46:22.380Z,1.00
2023-04-22T03:46:45.258Z,1.00
2023-04-22T03:47:08.774Z,1.00
2023-04-22T03:47:32.232Z,1.00
2023-04-22T03:47:55.143Z,1.00
2023-04-22T03:48:20.388Z,1.00
2023-04-22T03:48:43.126Z,1.00
2023-04-22T03:49:09.068Z,1.00
2023-04-22T03:49:31.917Z,1.00
2023-04-22T03:49:54.759Z,1.00
2023-04-22T03:50:17.630Z,1.00
2023-04-22T03:50:42.734Z,1.00
2023-04-22T03:51:05.766Z,1.00
2023-04-22T03:51:29.152Z,1.00
2023-04-22T03:51:51.898Z,1.00
2023-04-22T03:52:15.298Z,1.00
2023-04-22T03:52:38.054Z,1.00
2023-04-22T03:53:03.240Z,1.00
2023-04-22T03:53:26.024Z,1.00
2023-04-22T03:53:48.867Z,1.00
2023-04-22T03:54:11.695Z,1.00
2023-04-22T03:54:34.465Z,1.00
2023-04-22T03:55:01.138Z,1.00
2023-04-22T03:55:23.964Z,1.00
2023-04-22T03:55:46.791Z,1.00
2023-04-22T03:56:09.498Z,1.00
2023-04-22T03:56:32.418Z,1.00
2023-04-22T03:56:55.313Z,1.00
2023-04-22T03:57:18.249Z,1.00
2023-04-22T03:57:41.095Z,1.00
2023-04-22T03:58:04.043Z,1.00
2023-04-22T03:58:29.264Z,1.00
2023-04-22T03:58:52.132Z,1.00
2023-04-22T03:59:17.292Z,1.00
2023-04-22T03:59:40.425Z,1.00
2023-04-22T04:00:03.584Z,1.00
2023-04-22T04:00:26.513Z,1.00
2023-04-22T04:00:49.273Z,1.00
2023-04-22T04:01:12.222Z,1.00
2023-04-22T04:01:36.530Z,1.00
2023-04-22T04:01:59.584Z,1.00
2023-04-22T04:02:22.382Z,1.00
2023-04-22T04:02:45.727Z,1.00
2023-04-22T04:03:12.238Z,1.00
2023-04-22T04:03:35.753Z,1.00
2023-04-22T04:03:59.162Z,1.00
2023-04-22T04:04:23.973Z,1.00
2023-04-22T04:04:47.649Z,1.00
2023-04-22T04:05:11.748Z,1.00
2023-04-22T04:05:34.610Z,1.00
2023-04-22T04:05:57.451Z,1.00
2023-04-22T04:06:20.348Z,1.00
2023-04-22T04:06:43.056Z,1.00
2023-04-22T04:07:06.933Z,1.00
2023-04-22T04:07:29.767Z,1.00
2023-04-22T04:07:52.530Z,1.00
2023-04-22T04:08:16.013Z,1.00
2023-04-22T04:08:38.817Z,1.00
2023-04-22T04:09:02.019Z,1.00
2023-04-22T04:09:24.908Z,1.00
2023-04-22T04:09:50.244Z,1.00
2023-04-22T04:10:14.705Z,1.00
2023-04-22T04:10:37.742Z,1.00
2023-04-22T04:11:01.514Z,1.00
2023-04-22T04:11:24.357Z,1.00
2023-04-22T04:11:47.138Z,1.00
2023-04-22T04:12:12.172Z,1.00
2023-04-22T04:12:35.019Z,1.00
2023-04-22T04:13:00.906Z,1.00
2023-04-22T04:13:23.729Z,1.00
2023-04-22T04:13:48.879Z,1.00
2023-04-22T04:14:11.773Z,1.00
2023-04-22T04:14:34.506Z,1.00
2023-04-22T04:14:57.293Z,1.00
2023-04-22T04:15:21.524Z,1.00
2023-04-22T04:15:44.938Z,1.00
2023-04-22T04:16:08.012Z,1.00
2023-04-22T04:16:31.057Z,1.00
2023-04-22T04:16:53.931Z,1.00
2023-04-22T04:17:16.768Z,1.00
2023-04-22T04:17:40.148Z,1.00
2023-04-22T04:18:05.375Z,1.00
2023-04-22T04:18:29.739Z,1.00
2023-04-22T04:18:52.610Z,1.00
2023-04-22T04:19:15.386Z,1.00
2023-04-22T04:19:38.657Z,1.00
2023-04-22T04:20:01.927Z,1.00
2023-04-22T04:20:24.881Z,1.00
2023-04-22T04:20:47.610Z,1.00
2023-04-22T04:21:10.482Z,1.00
2023-04-22T04:21:33.979Z,1.00
2023-04-22T04:21:57.263Z,1.00
2023-04-22T04:22:20.698Z,1.00
2023-04-22T04:22:44.620Z,1.00
2023-04-22T04:23:08.083Z,1.00
2023-04-22T04:23:30.841Z,1.00
2023-04-22T04:23:53.620Z,1.00
2023-04-22T04:24:16.458Z,1.00
2023-04-22T04:24:42.398Z,1.00
2023-04-22T04:25:07.025Z,1.00
2023-04-22T04:25:37.860Z,1.00
2023-04-22T04:26:03.129Z,1.00
2023-04-22T04:26:27.595Z,1.00
2023-04-22T04:26:53.797Z,1.00
2023-04-22T04:27:16.655Z,1.00
2023-04-22T04:27:41.972Z,1.00
2023-04-22T04:28:05.342Z,1.00
2023-04-22T04:28:30.254Z,1.00
2023-04-22T04:28:53.653Z,99.90
2023-04-22T04:29:16.434Z,99.90
2023-04-22T04:29:39.945Z,99.90
2023-04-22T04:30:04.358Z,99.90
2023-04-22T04:30:27.291Z,99.90
2023-04-22T04:30:50.118Z,99.90
2023-04-22T04:31:13.012Z,99.90
2023-04-22T04:31:35.905Z,1.00
2023-04-22T04:31:58.646Z,1.00
2023-04-22T04:32:22.020Z,1.00
2023-04-22T04:32:45.846Z,99.90
2023-04-22T04:33:08.983Z,1.00
2023-04-22T04:33:32.722Z,99.90
2023-04-22T04:33:57.884Z,99.90
2023-04-22T04:34:23.300Z,99.90
2023-04-22T04:34:46.017Z,99.90
2023-04-22T04:35:10.129Z,99.90
2023-04-22T04:35:34.668Z,1.00
2023-04-22T04:35:58.609Z,99.90
2023-04-22T04:36:21.356Z,32.20
2023-04-22T04:36:46.632Z,28.80
2023-04-22T04:37:09.568Z,1.00
2023-04-22T04:37:32.325Z,1.00
2023-04-22T04:37:56.220Z,1.00
2023-04-22T04:38:19.721Z,1.00
2023-04-22T04:38:42.761Z,99.90
2023-04-22T04:39:05.538Z,99.90
2023-04-22T04:39:28.838Z,1.00
2023-04-22T04:39:53.776Z,1.00
2023-04-22T04:40:16.817Z,1.00
2023-04-22T04:40:45.429Z,99.90
2023-04-22T04:41:10.598Z,1.00
2023-04-22T04:41:33.356Z,99.90
2023-04-22T04:41:59.068Z,99.90
2023-04-22T04:42:24.642Z,99.90
2023-04-22T04:42:47.488Z,1.00
2023-04-22T04:43:10.239Z,1.00
2023-04-22T04:43:33.072Z,99.90
2023-04-22T04:43:56.457Z,1.00
2023-04-22T04:44:20.996Z,1.00
2023-04-22T04:44:43.780Z,99.90
2023-04-22T04:45:09.661Z,99.90
2023-04-22T04:45:32.571Z,1.00
2023-04-22T04:45:55.424Z,99.90
2023-04-22T04:46:18.409Z,99.90
2023-04-22T04:46:41.526Z,54.80
2023-04-22T04:47:05.658Z,84.70
2023-04-22T04:47:30.281Z,1.00
2023-04-22T04:47:53.147Z,1.00
2023-04-22T04:48:16.894Z,99.90
2023-04-22T04:48:42.445Z,99.90
2023-04-22T04:49:05.199Z,99.90
2023-04-22T04:49:30.680Z,42.30
2023-04-22T04:49:54.744Z,45.60
2023-04-22T04:50:17.464Z,99.90
2023-04-22T04:50:42.478Z,1.00
2023-04-22T04:51:06.421Z,1.00
2023-04-22T04:51:29.169Z,99.90
2023-04-22T04:51:51.952Z,99.90
2023-04-22T04:52:14.631Z,99.90
2023-04-22T04:52:37.414Z,99.90
2023-04-22T04:53:00.205Z,99.90
2023-04-22T04:53:23.067Z,90.30
2023-04-22T04:53:45.994Z,1.00
2023-04-22T04:54:08.762Z,1.00
2023-04-22T04:54:31.502Z,99.90
2023-04-22T04:54:54.240Z,99.90
2023-04-22T04:55:17.287Z,99.90
2023-04-22T04:55:41.707Z,99.90
2023-04-22T04:56:04.785Z,99.90
2023-04-22T04:56:27.690Z,99.90
2023-04-22T04:56:50.497Z,66.20
2023-04-22T04:57:13.133Z,71.40
2023-04-22T04:57:38.266Z,1.00
2023-04-22T04:58:01.343Z,3.10
2023-04-22T04:58:24.179Z,99.90
2023-04-22T04:58:47.032Z,1.00
2023-04-22T04:59:09.949Z,1.00
2023-04-22T04:59:32.844Z,1.00
2023-04-22T04:59:55.838Z,1.00
2023-04-22T05:00:21.408Z,1.00
2023-04-22T05:00:44.270Z,1.00
2023-04-22T05:01:07.080Z,1.00
2023-04-22T05:01:29.903Z,99.90
2023-04-22T05:01:52.841Z,1.00
2023-04-22T05:02:15.768Z,99.90
2023-04-22T05:02:38.773Z,1.00
2023-04-22T05:03:01.845Z,1.00
2023-04-22T05:03:24.901Z,1.00
2023-04-22T05:03:48.198Z,99.90
2023-04-22T05:04:12.175Z,99.90
2023-04-22T05:04:35.245Z,99.90
2023-04-22T05:04:58.039Z,99.90
2023-04-22T05:05:20.841Z,99.90
2023-04-22T05:05:43.671Z,99.90
2023-04-22T05:06:07.320Z,99.90